sensor_id;sensor_type;location;lat;lon;timestamp;P1;durP1;ratioP1;P2;durP2;ratioP2
17727;SDS011;8984;49.268;12.302;2024-01-15T00:01:30;44.57;;;25.67;;
17727;SDS011;8984;49.268;12.302;2024-01-15T00:03:57;49.27;;;26.93;;
17727;SDS011;8984;49.268;12.302;2024-01-15T00:06:36;46.93;;;26.77;;
17727;SDS011;8984;49.268;12.302;2024-01-15T00:09:06;45.27;;;24.97;;
17727;SDS011;8984;49.268;12.302;2024-01-15T00:11:37;53.33;;;28.27;;
17727;SDS011;8984;49.268;12.302;2024-01-15T00:14:05;49.23;;;27.50;;
17727;SDS011;8984;49.268;12.302;2024-01-15T00:16:45;56.00;;;29.43;;
17727;SDS011;8984;49.268;12.302;2024-01-15T00:19:16;45.03;;;25.97;;
17727;SDS011;8984;49.268;12.302;2024-01-15T00:21:55;48.40;;;26.47;;
17727;SDS011;8984;49.268;12.302;2024-01-15T00:24:35;49.30;;;27.30;;
17727;SDS011;8984;49.268;12.302;2024-01-15T00:27:16;50.67;;;26.90;;
17727;SDS011;8984;49.268;12.302;2024-01-15T00:29:45;47.70;;;26.90;;
17727;SDS011;8984;49.268;12.302;2024-01-15T00:32:13;50.53;;;27.17;;
17727;SDS011;8984;49.268;12.302;2024-01-15T00:35:08;48.50;;;25.50;;
17727;SDS011;8984;49.268;12.302;2024-01-15T00:37:55;43.60;;;25.73;;
17727;SDS011;8984;49.268;12.302;2024-01-15T00:40:22;47.30;;;25.87;;
17727;SDS011;8984;49.268;12.302;2024-01-15T00:42:56;47.33;;;26.43;;
17727;SDS011;8984;49.268;12.302;2024-01-15T00:45:31;50.70;;;27.37;;
17727;SDS011;8984;49.268;12.302;2024-01-15T00:48:12;49.70;;;26.07;;
17727;SDS011;8984;49.268;12.302;2024-01-15T00:50:43;51.33;;;27.13;;
17727;SDS011;8984;49.268;12.302;2024-01-15T00:53:14;49.33;;;26.87;;
17727;SDS011;8984;49.268;12.302;2024-01-15T00:55:48;44.73;;;24.83;;
17727;SDS011;8984;49.268;12.302;2024-01-15T00:58:17;51.40;;;26.60;;
17727;SDS011;8984;49.268;12.302;2024-01-15T01:00:49;48.17;;;26.37;;
17727;SDS011;8984;49.268;12.302;2024-01-15T01:03:28;45.10;;;24.17;;
17727;SDS011;8984;49.268;12.302;2024-01-15T01:06:03;45.07;;;24.73;;
17727;SDS011;8984;49.268;12.302;2024-01-15T01:08:36;44.23;;;23.97;;
17727;SDS011;8984;49.268;12.302;2024-01-15T01:11:11;44.07;;;26.27;;
17727;SDS011;8984;49.268;12.302;2024-01-15T01:13:42;49.27;;;25.43;;
17727;SDS011;8984;49.268;12.302;2024-01-15T01:16:11;45.77;;;24.37;;
17727;SDS011;8984;49.268;12.302;2024-01-15T01:18:48;47.10;;;24.93;;
17727;SDS011;8984;49.268;12.302;2024-01-15T01:21:18;47.07;;;25.27;;
17727;SDS011;8984;49.268;12.302;2024-01-15T01:23:54;49.97;;;25.13;;
17727;SDS011;8984;49.268;12.302;2024-01-15T01:26:23;47.37;;;24.07;;
17727;SDS011;8984;49.268;12.302;2024-01-15T01:29:12;50.17;;;23.70;;
17727;SDS011;8984;49.268;12.302;2024-01-15T01:31:54;50.20;;;25.57;;
17727;SDS011;8984;49.268;12.302;2024-01-15T01:34:21;50.43;;;26.20;;
17727;SDS011;8984;49.268;12.302;2024-01-15T01:37:06;53.80;;;27.53;;
17727;SDS011;8984;49.268;12.302;2024-01-15T01:39:44;49.37;;;25.57;;
17727;SDS011;8984;49.268;12.302;2024-01-15T01:42:14;46.23;;;24.10;;
17727;SDS011;8984;49.268;12.302;2024-01-15T01:44:48;52.43;;;26.63;;
17727;SDS011;8984;49.268;12.302;2024-01-15T01:47:45;49.13;;;25.03;;
17727;SDS011;8984;49.268;12.302;2024-01-15T01:50:27;54.23;;;26.80;;
17727;SDS011;8984;49.268;12.302;2024-01-15T01:52:59;56.73;;;26.87;;
17727;SDS011;8984;49.268;12.302;2024-01-15T01:58:28;49.63;;;25.97;;
17727;SDS011;8984;49.268;12.302;2024-01-15T02:01:09;49.93;;;25.40;;
17727;SDS011;8984;49.268;12.302;2024-01-15T02:03:52;46.07;;;24.93;;
17727;SDS011;8984;49.268;12.302;2024-01-15T02:06:21;54.70;;;26.13;;
17727;SDS011;8984;49.268;12.302;2024-01-15T02:08:54;57.63;;;27.87;;
17727;SDS011;8984;49.268;12.302;2024-01-15T02:11:52;45.33;;;24.57;;
17727;SDS011;8984;49.268;12.302;2024-01-15T02:14:19;50.00;;;25.50;;
17727;SDS011;8984;49.268;12.302;2024-01-15T02:16:46;44.23;;;22.87;;
17727;SDS011;8984;49.268;12.302;2024-01-15T02:19:14;46.13;;;23.20;;
17727;SDS011;8984;49.268;12.302;2024-01-15T02:21:42;43.13;;;23.10;;
17727;SDS011;8984;49.268;12.302;2024-01-15T02:24:10;43.53;;;22.20;;
17727;SDS011;8984;49.268;12.302;2024-01-15T02:26:37;45.80;;;23.10;;
17727;SDS011;8984;49.268;12.302;2024-01-15T02:29:04;47.73;;;23.67;;
17727;SDS011;8984;49.268;12.302;2024-01-15T02:31:32;42.57;;;21.13;;
17727;SDS011;8984;49.268;12.302;2024-01-15T02:33:59;44.57;;;22.63;;
17727;SDS011;8984;49.268;12.302;2024-01-15T02:36:26;42.03;;;21.60;;
17727;SDS011;8984;49.268;12.302;2024-01-15T02:38:53;38.97;;;21.33;;
17727;SDS011;8984;49.268;12.302;2024-01-15T02:41:21;42.33;;;22.67;;
17727;SDS011;8984;49.268;12.302;2024-01-15T02:43:48;41.57;;;22.43;;
17727;SDS011;8984;49.268;12.302;2024-01-15T02:46:14;46.50;;;22.33;;
17727;SDS011;8984;49.268;12.302;2024-01-15T02:48:41;48.50;;;24.07;;
17727;SDS011;8984;49.268;12.302;2024-01-15T02:51:08;49.03;;;23.40;;
17727;SDS011;8984;49.268;12.302;2024-01-15T02:53:35;44.47;;;22.23;;
17727;SDS011;8984;49.268;12.302;2024-01-15T02:56:03;42.20;;;22.00;;
17727;SDS011;8984;49.268;12.302;2024-01-15T02:58:31;45.30;;;22.80;;
17727;SDS011;8984;49.268;12.302;2024-01-15T03:00:58;43.07;;;22.47;;
17727;SDS011;8984;49.268;12.302;2024-01-15T03:03:25;42.60;;;20.60;;
17727;SDS011;8984;49.268;12.302;2024-01-15T03:05:52;44.17;;;22.00;;
17727;SDS011;8984;49.268;12.302;2024-01-15T03:08:19;44.77;;;21.30;;
17727;SDS011;8984;49.268;12.302;2024-01-15T03:10:47;40.03;;;21.30;;
17727;SDS011;8984;49.268;12.302;2024-01-15T03:13:14;38.90;;;20.03;;
17727;SDS011;8984;49.268;12.302;2024-01-15T03:15:42;44.37;;;21.83;;
17727;SDS011;8984;49.268;12.302;2024-01-15T03:18:09;45.27;;;22.60;;
17727;SDS011;8984;49.268;12.302;2024-01-15T03:20:36;38.93;;;19.93;;
17727;SDS011;8984;49.268;12.302;2024-01-15T03:23:02;38.03;;;20.03;;
17727;SDS011;8984;49.268;12.302;2024-01-15T03:25:29;45.37;;;21.90;;
17727;SDS011;8984;49.268;12.302;2024-01-15T03:27:56;39.17;;;19.70;;
17727;SDS011;8984;49.268;12.302;2024-01-15T03:30:23;42.53;;;20.00;;
17727;SDS011;8984;49.268;12.302;2024-01-15T03:32:51;44.77;;;20.63;;
17727;SDS011;8984;49.268;12.302;2024-01-15T03:35:18;38.63;;;20.23;;
17727;SDS011;8984;49.268;12.302;2024-01-15T03:37:44;39.80;;;20.03;;
17727;SDS011;8984;49.268;12.302;2024-01-15T03:40:11;39.67;;;20.00;;
17727;SDS011;8984;49.268;12.302;2024-01-15T03:42:38;43.47;;;21.20;;
17727;SDS011;8984;49.268;12.302;2024-01-15T03:45:05;41.60;;;20.90;;
17727;SDS011;8984;49.268;12.302;2024-01-15T03:47:32;40.13;;;20.03;;
17727;SDS011;8984;49.268;12.302;2024-01-15T03:50:00;42.60;;;20.43;;
17727;SDS011;8984;49.268;12.302;2024-01-15T03:52:27;43.23;;;20.33;;
17727;SDS011;8984;49.268;12.302;2024-01-15T03:54:54;46.00;;;21.00;;
17727;SDS011;8984;49.268;12.302;2024-01-15T03:57:21;44.33;;;21.67;;
17727;SDS011;8984;49.268;12.302;2024-01-15T03:59:48;41.50;;;20.57;;
17727;SDS011;8984;49.268;12.302;2024-01-15T04:02:15;45.83;;;21.50;;
17727;SDS011;8984;49.268;12.302;2024-01-15T04:04:42;46.30;;;20.57;;
17727;SDS011;8984;49.268;12.302;2024-01-15T04:07:10;41.93;;;20.07;;
17727;SDS011;8984;49.268;12.302;2024-01-15T04:09:37;43.97;;;20.20;;
17727;SDS011;8984;49.268;12.302;2024-01-15T04:12:04;42.83;;;20.13;;
17727;SDS011;8984;49.268;12.302;2024-01-15T04:14:31;37.53;;;19.30;;
17727;SDS011;8984;49.268;12.302;2024-01-15T04:16:58;39.87;;;19.90;;
17727;SDS011;8984;49.268;12.302;2024-01-15T04:19:24;37.13;;;19.23;;
17727;SDS011;8984;49.268;12.302;2024-01-15T04:21:51;41.70;;;19.83;;
17727;SDS011;8984;49.268;12.302;2024-01-15T04:24:19;39.17;;;19.13;;
17727;SDS011;8984;49.268;12.302;2024-01-15T04:26:46;41.83;;;20.03;;
17727;SDS011;8984;49.268;12.302;2024-01-15T04:29:13;41.97;;;20.83;;
17727;SDS011;8984;49.268;12.302;2024-01-15T04:31:39;45.07;;;21.63;;
17727;SDS011;8984;49.268;12.302;2024-01-15T04:34:06;34.57;;;17.83;;
17727;SDS011;8984;49.268;12.302;2024-01-15T04:36:38;38.97;;;18.73;;
17727;SDS011;8984;49.268;12.302;2024-01-15T04:39:05;39.97;;;19.73;;
17727;SDS011;8984;49.268;12.302;2024-01-15T04:41:33;40.87;;;19.20;;
17727;SDS011;8984;49.268;12.302;2024-01-15T04:44:00;34.07;;;17.77;;
17727;SDS011;8984;49.268;12.302;2024-01-15T04:46:27;37.63;;;18.00;;
17727;SDS011;8984;49.268;12.302;2024-01-15T04:48:54;36.27;;;18.23;;
17727;SDS011;8984;49.268;12.302;2024-01-15T04:51:20;43.17;;;19.30;;
17727;SDS011;8984;49.268;12.302;2024-01-15T04:53:47;34.53;;;17.80;;
17727;SDS011;8984;49.268;12.302;2024-01-15T04:56:14;42.00;;;19.07;;
17727;SDS011;8984;49.268;12.302;2024-01-15T04:58:42;34.00;;;17.63;;
17727;SDS011;8984;49.268;12.302;2024-01-15T05:01:09;35.13;;;17.37;;
17727;SDS011;8984;49.268;12.302;2024-01-15T05:03:36;34.90;;;16.67;;
17727;SDS011;8984;49.268;12.302;2024-01-15T05:06:03;32.13;;;16.63;;
17727;SDS011;8984;49.268;12.302;2024-01-15T05:08:30;36.53;;;17.60;;
17727;SDS011;8984;49.268;12.302;2024-01-15T05:10:57;34.93;;;18.37;;
17727;SDS011;8984;49.268;12.302;2024-01-15T05:13:24;39.33;;;19.13;;
17727;SDS011;8984;49.268;12.302;2024-01-15T05:15:52;31.57;;;17.13;;
17727;SDS011;8984;49.268;12.302;2024-01-15T05:18:19;39.17;;;19.27;;
17727;SDS011;8984;49.268;12.302;2024-01-15T05:20:45;38.30;;;18.93;;
17727;SDS011;8984;49.268;12.302;2024-01-15T05:23:12;38.83;;;18.33;;
17727;SDS011;8984;49.268;12.302;2024-01-15T05:25:39;30.93;;;16.23;;
17727;SDS011;8984;49.268;12.302;2024-01-15T05:28:06;29.50;;;15.97;;
17727;SDS011;8984;49.268;12.302;2024-01-15T05:30:33;33.07;;;16.53;;
17727;SDS011;8984;49.268;12.302;2024-01-15T05:33:01;32.40;;;15.60;;
17727;SDS011;8984;49.268;12.302;2024-01-15T05:35:28;28.40;;;15.43;;
17727;SDS011;8984;49.268;12.302;2024-01-15T05:37:55;29.07;;;15.17;;
17727;SDS011;8984;49.268;12.302;2024-01-15T05:40:21;31.20;;;16.77;;
17727;SDS011;8984;49.268;12.302;2024-01-15T05:42:48;28.17;;;15.07;;
17727;SDS011;8984;49.268;12.302;2024-01-15T05:45:15;28.90;;;14.63;;
17727;SDS011;8984;49.268;12.302;2024-01-15T05:47:42;27.27;;;14.07;;
17727;SDS011;8984;49.268;12.302;2024-01-15T05:50:11;27.40;;;14.30;;
17727;SDS011;8984;49.268;12.302;2024-01-15T05:52:38;26.80;;;14.03;;
17727;SDS011;8984;49.268;12.302;2024-01-15T05:55:04;29.40;;;14.97;;
17727;SDS011;8984;49.268;12.302;2024-01-15T05:57:31;28.93;;;14.50;;
17727;SDS011;8984;49.268;12.302;2024-01-15T05:59:58;27.60;;;14.10;;
17727;SDS011;8984;49.268;12.302;2024-01-15T06:02:26;23.63;;;14.20;;
17727;SDS011;8984;49.268;12.302;2024-01-15T06:04:52;26.63;;;14.27;;
17727;SDS011;8984;49.268;12.302;2024-01-15T06:07:20;27.67;;;14.77;;
17727;SDS011;8984;49.268;12.302;2024-01-15T06:09:49;30.70;;;16.97;;
17727;SDS011;8984;49.268;12.302;2024-01-15T06:12:15;30.80;;;16.93;;
17727;SDS011;8984;49.268;12.302;2024-01-15T06:14:42;26.60;;;15.20;;
17727;SDS011;8984;49.268;12.302;2024-01-15T06:17:09;31.17;;;17.63;;
17727;SDS011;8984;49.268;12.302;2024-01-15T06:19:36;26.13;;;14.87;;
17727;SDS011;8984;49.268;12.302;2024-01-15T06:22:02;28.00;;;15.43;;
17727;SDS011;8984;49.268;12.302;2024-01-15T06:24:31;23.90;;;14.33;;
17727;SDS011;8984;49.268;12.302;2024-01-15T06:26:58;27.27;;;15.00;;
17727;SDS011;8984;49.268;12.302;2024-01-15T06:29:25;26.30;;;14.07;;
17727;SDS011;8984;49.268;12.302;2024-01-15T06:31:53;28.23;;;14.33;;
17727;SDS011;8984;49.268;12.302;2024-01-15T06:34:19;28.37;;;14.27;;
17727;SDS011;8984;49.268;12.302;2024-01-15T06:36:46;25.10;;;13.03;;
17727;SDS011;8984;49.268;12.302;2024-01-15T06:39:13;24.10;;;13.40;;
17727;SDS011;8984;49.268;12.302;2024-01-15T06:41:41;24.57;;;14.60;;
17727;SDS011;8984;49.268;12.302;2024-01-15T06:44:09;24.30;;;13.03;;
17727;SDS011;8984;49.268;12.302;2024-01-15T06:46:36;25.77;;;13.63;;
17727;SDS011;8984;49.268;12.302;2024-01-15T06:49:07;24.17;;;14.03;;
17727;SDS011;8984;49.268;12.302;2024-01-15T06:51:35;26.80;;;14.20;;
17727;SDS011;8984;49.268;12.302;2024-01-15T06:54:01;22.93;;;13.33;;
17727;SDS011;8984;49.268;12.302;2024-01-15T06:56:28;24.80;;;14.17;;
17727;SDS011;8984;49.268;12.302;2024-01-15T06:58:57;23.43;;;13.67;;
17727;SDS011;8984;49.268;12.302;2024-01-15T07:01:24;21.67;;;13.07;;
17727;SDS011;8984;49.268;12.302;2024-01-15T07:03:50;23.80;;;12.93;;
17727;SDS011;8984;49.268;12.302;2024-01-15T07:06:17;23.17;;;13.17;;
17727;SDS011;8984;49.268;12.302;2024-01-15T07:08:45;25.03;;;13.60;;
17727;SDS011;8984;49.268;12.302;2024-01-15T07:11:12;26.17;;;14.07;;
17727;SDS011;8984;49.268;12.302;2024-01-15T07:13:39;26.50;;;13.93;;
17727;SDS011;8984;49.268;12.302;2024-01-15T07:16:07;24.70;;;13.53;;
17727;SDS011;8984;49.268;12.302;2024-01-15T07:18:34;22.93;;;13.53;;
17727;SDS011;8984;49.268;12.302;2024-01-15T07:21:01;21.67;;;13.07;;
17727;SDS011;8984;49.268;12.302;2024-01-15T07:23:27;23.57;;;12.80;;
17727;SDS011;8984;49.268;12.302;2024-01-15T07:25:54;34.13;;;14.70;;
17727;SDS011;8984;49.268;12.302;2024-01-15T07:28:21;22.47;;;13.00;;
17727;SDS011;8984;49.268;12.302;2024-01-15T07:30:48;26.67;;;13.83;;
17727;SDS011;8984;49.268;12.302;2024-01-15T07:33:16;22.80;;;12.83;;
17727;SDS011;8984;49.268;12.302;2024-01-15T07:35:42;23.80;;;12.73;;
17727;SDS011;8984;49.268;12.302;2024-01-15T07:38:09;22.90;;;13.20;;
17727;SDS011;8984;49.268;12.302;2024-01-15T07:40:36;22.63;;;12.50;;
17727;SDS011;8984;49.268;12.302;2024-01-15T07:43:03;25.63;;;14.40;;
17727;SDS011;8984;49.268;12.302;2024-01-15T07:45:30;23.80;;;13.23;;
17727;SDS011;8984;49.268;12.302;2024-01-15T07:47:57;22.50;;;12.57;;
17727;SDS011;8984;49.268;12.302;2024-01-15T07:50:25;27.10;;;15.23;;
17727;SDS011;8984;49.268;12.302;2024-01-15T07:52:52;22.50;;;14.03;;
17727;SDS011;8984;49.268;12.302;2024-01-15T07:55:19;22.03;;;13.67;;
17727;SDS011;8984;49.268;12.302;2024-01-15T07:57:45;24.37;;;13.87;;
17727;SDS011;8984;49.268;12.302;2024-01-15T08:00:12;21.20;;;13.17;;
17727;SDS011;8984;49.268;12.302;2024-01-15T08:02:40;23.37;;;14.47;;
17727;SDS011;8984;49.268;12.302;2024-01-15T08:05:06;23.40;;;13.73;;
17727;SDS011;8984;49.268;12.302;2024-01-15T08:07:34;27.13;;;13.93;;
17727;SDS011;8984;49.268;12.302;2024-01-15T08:10:01;24.93;;;14.60;;
17727;SDS011;8984;49.268;12.302;2024-01-15T08:12:28;28.63;;;17.40;;
17727;SDS011;8984;49.268;12.302;2024-01-15T08:14:55;28.77;;;16.20;;
17727;SDS011;8984;49.268;12.302;2024-01-15T08:17:21;24.37;;;14.03;;
17727;SDS011;8984;49.268;12.302;2024-01-15T08:19:48;19.17;;;12.07;;
17727;SDS011;8984;49.268;12.302;2024-01-15T08:22:15;24.13;;;13.77;;
17727;SDS011;8984;49.268;12.302;2024-01-15T08:24:43;19.73;;;11.93;;
17727;SDS011;8984;49.268;12.302;2024-01-15T08:27:10;21.90;;;11.70;;
17727;SDS011;8984;49.268;12.302;2024-01-15T08:29:37;20.03;;;12.00;;
17727;SDS011;8984;49.268;12.302;2024-01-15T08:32:04;23.10;;;12.57;;
17727;SDS011;8984;49.268;12.302;2024-01-15T08:34:31;21.23;;;11.60;;
17727;SDS011;8984;49.268;12.302;2024-01-15T08:36:58;20.00;;;11.93;;
17727;SDS011;8984;49.268;12.302;2024-01-15T08:39:25;19.50;;;11.90;;
17727;SDS011;8984;49.268;12.302;2024-01-15T08:41:53;19.73;;;11.50;;
17727;SDS011;8984;49.268;12.302;2024-01-15T08:44:19;17.67;;;10.80;;
17727;SDS011;8984;49.268;12.302;2024-01-15T08:46:46;17.90;;;11.30;;
17727;SDS011;8984;49.268;12.302;2024-01-15T08:49:13;19.80;;;10.53;;
17727;SDS011;8984;49.268;12.302;2024-01-15T08:51:40;22.57;;;11.87;;
17727;SDS011;8984;49.268;12.302;2024-01-15T08:54:07;20.50;;;10.27;;
17727;SDS011;8984;49.268;12.302;2024-01-15T08:56:34;16.87;;;9.73;;
17727;SDS011;8984;49.268;12.302;2024-01-15T08:59:02;20.67;;;11.77;;
17727;SDS011;8984;49.268;12.302;2024-01-15T09:01:29;24.53;;;13.20;;
17727;SDS011;8984;49.268;12.302;2024-01-15T09:03:56;15.40;;;10.17;;
17727;SDS011;8984;49.268;12.302;2024-01-15T09:06:23;15.50;;;10.17;;
17727;SDS011;8984;49.268;12.302;2024-01-15T09:08:49;13.10;;;9.37;;
17727;SDS011;8984;49.268;12.302;2024-01-15T09:11:16;19.37;;;10.77;;
17727;SDS011;8984;49.268;12.302;2024-01-15T09:13:43;16.33;;;9.77;;
17727;SDS011;8984;49.268;12.302;2024-01-15T09:16:11;15.07;;;10.27;;
17727;SDS011;8984;49.268;12.302;2024-01-15T09:18:38;19.50;;;11.03;;
17727;SDS011;8984;49.268;12.302;2024-01-15T09:21:04;16.03;;;10.53;;
17727;SDS011;8984;49.268;12.302;2024-01-15T09:23:31;16.43;;;10.63;;
17727;SDS011;8984;49.268;12.302;2024-01-15T09:25:58;18.60;;;10.40;;
17727;SDS011;8984;49.268;12.302;2024-01-15T09:28:25;18.57;;;10.60;;
17727;SDS011;8984;49.268;12.302;2024-01-15T09:30:51;17.63;;;10.80;;
17727;SDS011;8984;49.268;12.302;2024-01-15T09:33:19;16.70;;;11.20;;
17727;SDS011;8984;49.268;12.302;2024-01-15T09:35:46;15.93;;;10.23;;
17727;SDS011;8984;49.268;12.302;2024-01-15T09:38:13;18.43;;;11.27;;
17727;SDS011;8984;49.268;12.302;2024-01-15T09:40:40;17.17;;;9.87;;
17727;SDS011;8984;49.268;12.302;2024-01-15T09:43:11;15.80;;;10.63;;
17727;SDS011;8984;49.268;12.302;2024-01-15T09:45:39;16.57;;;10.37;;
17727;SDS011;8984;49.268;12.302;2024-01-15T09:48:06;17.13;;;10.03;;
17727;SDS011;8984;49.268;12.302;2024-01-15T09:50:35;16.83;;;10.60;;
17727;SDS011;8984;49.268;12.302;2024-01-15T09:53:02;17.43;;;10.77;;
17727;SDS011;8984;49.268;12.302;2024-01-15T09:55:29;16.80;;;11.07;;
17727;SDS011;8984;49.268;12.302;2024-01-15T09:57:57;18.40;;;10.53;;
17727;SDS011;8984;49.268;12.302;2024-01-15T10:00:26;15.00;;;9.27;;
17727;SDS011;8984;49.268;12.302;2024-01-15T10:02:55;15.47;;;10.03;;
17727;SDS011;8984;49.268;12.302;2024-01-15T10:05:22;16.00;;;10.03;;
17727;SDS011;8984;49.268;12.302;2024-01-15T10:07:50;16.87;;;9.60;;
17727;SDS011;8984;49.268;12.302;2024-01-15T10:10:19;16.23;;;10.07;;
17727;SDS011;8984;49.268;12.302;2024-01-15T10:12:46;14.77;;;9.50;;
17727;SDS011;8984;49.268;12.302;2024-01-15T10:15:13;13.63;;;9.60;;
17727;SDS011;8984;49.268;12.302;2024-01-15T10:17:42;16.30;;;10.07;;
17727;SDS011;8984;49.268;12.302;2024-01-15T10:20:09;20.47;;;10.13;;
17727;SDS011;8984;49.268;12.302;2024-01-15T10:22:39;14.47;;;9.60;;
17727;SDS011;8984;49.268;12.302;2024-01-15T10:25:11;13.73;;;9.27;;
17727;SDS011;8984;49.268;12.302;2024-01-15T10:27:38;13.83;;;8.93;;
17727;SDS011;8984;49.268;12.302;2024-01-15T10:30:05;13.20;;;8.87;;
17727;SDS011;8984;49.268;12.302;2024-01-15T10:32:33;19.87;;;11.93;;
17727;SDS011;8984;49.268;12.302;2024-01-15T10:34:59;28.70;;;19.43;;
17727;SDS011;8984;49.268;12.302;2024-01-15T10:37:27;20.67;;;13.47;;
17727;SDS011;8984;49.268;12.302;2024-01-15T10:39:53;20.13;;;11.87;;
17727;SDS011;8984;49.268;12.302;2024-01-15T10:42:21;16.20;;;9.40;;
17727;SDS011;8984;49.268;12.302;2024-01-15T10:44:48;15.03;;;11.20;;
17727;SDS011;8984;49.268;12.302;2024-01-15T10:47:15;16.17;;;10.90;;
17727;SDS011;8984;49.268;12.302;2024-01-15T10:49:42;15.40;;;9.30;;
17727;SDS011;8984;49.268;12.302;2024-01-15T10:52:09;15.87;;;8.90;;
17727;SDS011;8984;49.268;12.302;2024-01-15T10:54:36;18.47;;;9.67;;
17727;SDS011;8984;49.268;12.302;2024-01-15T10:57:04;13.40;;;8.83;;
17727;SDS011;8984;49.268;12.302;2024-01-15T10:59:33;14.27;;;8.50;;
17727;SDS011;8984;49.268;12.302;2024-01-15T11:02:00;15.30;;;8.57;;
17727;SDS011;8984;49.268;12.302;2024-01-15T11:04:27;10.20;;;7.73;;
17727;SDS011;8984;49.268;12.302;2024-01-15T11:06:53;12.73;;;8.07;;
17727;SDS011;8984;49.268;12.302;2024-01-15T11:09:22;14.67;;;8.00;;
17727;SDS011;8984;49.268;12.302;2024-01-15T11:11:51;15.10;;;9.33;;
17727;SDS011;8984;49.268;12.302;2024-01-15T11:14:39;13.00;;;8.00;;
17727;SDS011;8984;49.268;12.302;2024-01-15T11:17:08;12.07;;;7.97;;
17727;SDS011;8984;49.268;12.302;2024-01-15T11:19:36;14.87;;;8.73;;
17727;SDS011;8984;49.268;12.302;2024-01-15T11:22:05;14.43;;;8.60;;
17727;SDS011;8984;49.268;12.302;2024-01-15T11:24:34;11.43;;;8.20;;
17727;SDS011;8984;49.268;12.302;2024-01-15T11:27:02;15.63;;;10.47;;
17727;SDS011;8984;49.268;12.302;2024-01-15T11:29:30;19.10;;;13.00;;
17727;SDS011;8984;49.268;12.302;2024-01-15T11:32:00;13.27;;;9.00;;
17727;SDS011;8984;49.268;12.302;2024-01-15T11:37:25;12.77;;;8.53;;
17727;SDS011;8984;49.268;12.302;2024-01-15T11:39:53;13.93;;;8.90;;
17727;SDS011;8984;49.268;12.302;2024-01-15T11:42:20;14.93;;;9.33;;
17727;SDS011;8984;49.268;12.302;2024-01-15T11:44:49;15.37;;;8.87;;
17727;SDS011;8984;49.268;12.302;2024-01-15T11:47:21;16.07;;;10.13;;
17727;SDS011;8984;49.268;12.302;2024-01-15T11:50:18;14.40;;;8.93;;
17727;SDS011;8984;49.268;12.302;2024-01-15T11:52:49;14.27;;;9.17;;
17727;SDS011;8984;49.268;12.302;2024-01-15T11:55:22;13.77;;;8.53;;
17727;SDS011;8984;49.268;12.302;2024-01-15T11:57:53;12.37;;;8.90;;
17727;SDS011;8984;49.268;12.302;2024-01-15T12:00:21;15.03;;;11.17;;
17727;SDS011;8984;49.268;12.302;2024-01-15T12:02:49;11.47;;;8.43;;
17727;SDS011;8984;49.268;12.302;2024-01-15T12:05:17;16.57;;;10.03;;
17727;SDS011;8984;49.268;12.302;2024-01-15T12:07:45;13.47;;;10.17;;
17727;SDS011;8984;49.268;12.302;2024-01-15T12:10:14;16.87;;;9.10;;
17727;SDS011;8984;49.268;12.302;2024-01-15T12:12:46;11.70;;;7.87;;
17727;SDS011;8984;49.268;12.302;2024-01-15T12:15:23;10.83;;;7.93;;
17727;SDS011;8984;49.268;12.302;2024-01-15T12:17:52;13.53;;;8.43;;
17727;SDS011;8984;49.268;12.302;2024-01-15T12:20:18;14.13;;;8.77;;
17727;SDS011;8984;49.268;12.302;2024-01-15T12:22:45;10.90;;;7.83;;
17727;SDS011;8984;49.268;12.302;2024-01-15T12:25:12;13.70;;;8.53;;
17727;SDS011;8984;49.268;12.302;2024-01-15T12:27:39;13.00;;;8.80;;
17727;SDS011;8984;49.268;12.302;2024-01-15T12:30:06;11.50;;;7.80;;
17727;SDS011;8984;49.268;12.302;2024-01-15T12:32:36;10.87;;;7.50;;
17727;SDS011;8984;49.268;12.302;2024-01-15T12:35:05;14.33;;;7.90;;
17727;SDS011;8984;49.268;12.302;2024-01-15T12:37:32;14.70;;;7.17;;
17727;SDS011;8984;49.268;12.302;2024-01-15T12:40:01;10.60;;;7.33;;
17727;SDS011;8984;49.268;12.302;2024-01-15T12:42:28;10.57;;;7.57;;
17727;SDS011;8984;49.268;12.302;2024-01-15T12:44:55;10.17;;;6.93;;
17727;SDS011;8984;49.268;12.302;2024-01-15T12:47:22;9.67;;;6.70;;
17727;SDS011;8984;49.268;12.302;2024-01-15T12:49:51;11.47;;;8.43;;
17727;SDS011;8984;49.268;12.302;2024-01-15T12:52:21;12.83;;;8.20;;
17727;SDS011;8984;49.268;12.302;2024-01-15T12:54:51;11.27;;;8.13;;
17727;SDS011;8984;49.268;12.302;2024-01-15T12:57:18;11.50;;;7.63;;
17727;SDS011;8984;49.268;12.302;2024-01-15T12:59:45;10.57;;;7.63;;
17727;SDS011;8984;49.268;12.302;2024-01-15T13:02:12;8.33;;;6.30;;
17727;SDS011;8984;49.268;12.302;2024-01-15T13:04:39;8.97;;;7.13;;
17727;SDS011;8984;49.268;12.302;2024-01-15T13:07:06;187.80;;;73.77;;
17727;SDS011;8984;49.268;12.302;2024-01-15T13:09:34;169.93;;;58.73;;
17727;SDS011;8984;49.268;12.302;2024-01-15T13:12:01;75.37;;;26.63;;
17727;SDS011;8984;49.268;12.302;2024-01-15T13:14:29;13.47;;;8.30;;
17727;SDS011;8984;49.268;12.302;2024-01-15T13:16:56;12.93;;;7.10;;
17727;SDS011;8984;49.268;12.302;2024-01-15T13:19:23;8.97;;;7.10;;
17727;SDS011;8984;49.268;12.302;2024-01-15T13:21:50;13.13;;;8.90;;
17727;SDS011;8984;49.268;12.302;2024-01-15T13:24:18;10.47;;;7.83;;
17727;SDS011;8984;49.268;12.302;2024-01-15T13:26:46;20.10;;;7.80;;
17727;SDS011;8984;49.268;12.302;2024-01-15T13:29:13;11.63;;;7.87;;
17727;SDS011;8984;49.268;12.302;2024-01-15T13:31:40;11.67;;;6.90;;
17727;SDS011;8984;49.268;12.302;2024-01-15T13:34:06;12.37;;;8.10;;
17727;SDS011;8984;49.268;12.302;2024-01-15T13:36:34;11.70;;;7.03;;
17727;SDS011;8984;49.268;12.302;2024-01-15T13:39:03;11.63;;;7.47;;
17727;SDS011;8984;49.268;12.302;2024-01-15T13:41:33;11.67;;;7.80;;
17727;SDS011;8984;49.268;12.302;2024-01-15T13:44:02;9.47;;;6.70;;
17727;SDS011;8984;49.268;12.302;2024-01-15T13:46:28;15.63;;;8.53;;
17727;SDS011;8984;49.268;12.302;2024-01-15T13:48:55;14.43;;;8.23;;
17727;SDS011;8984;49.268;12.302;2024-01-15T13:51:22;12.50;;;7.53;;
17727;SDS011;8984;49.268;12.302;2024-01-15T13:53:49;10.27;;;7.47;;
17727;SDS011;8984;49.268;12.302;2024-01-15T13:56:16;10.87;;;7.20;;
17727;SDS011;8984;49.268;12.302;2024-01-15T13:58:43;12.60;;;7.37;;
17727;SDS011;8984;49.268;12.302;2024-01-15T14:01:11;11.43;;;7.97;;
17727;SDS011;8984;49.268;12.302;2024-01-15T14:03:38;10.30;;;7.10;;
17727;SDS011;8984;49.268;12.302;2024-01-15T14:06:04;11.90;;;9.77;;
17727;SDS011;8984;49.268;12.302;2024-01-15T14:08:34;17.80;;;12.33;;
17727;SDS011;8984;49.268;12.302;2024-01-15T14:11:01;17.77;;;12.47;;
17727;SDS011;8984;49.268;12.302;2024-01-15T14:13:28;28.83;;;18.93;;
17727;SDS011;8984;49.268;12.302;2024-01-15T14:15:54;33.17;;;21.43;;
17727;SDS011;8984;49.268;12.302;2024-01-15T14:18:23;26.43;;;14.90;;
17727;SDS011;8984;49.268;12.302;2024-01-15T14:20:50;22.47;;;14.30;;
17727;SDS011;8984;49.268;12.302;2024-01-15T14:23:16;12.57;;;8.43;;
17727;SDS011;8984;49.268;12.302;2024-01-15T14:25:44;10.87;;;7.50;;
17727;SDS011;8984;49.268;12.302;2024-01-15T14:28:11;9.63;;;7.03;;
17727;SDS011;8984;49.268;12.302;2024-01-15T14:30:37;12.33;;;8.80;;
17727;SDS011;8984;49.268;12.302;2024-01-15T14:33:04;13.47;;;9.20;;
17727;SDS011;8984;49.268;12.302;2024-01-15T14:35:32;11.83;;;7.87;;
17727;SDS011;8984;49.268;12.302;2024-01-15T14:37:59;9.57;;;7.43;;
17727;SDS011;8984;49.268;12.302;2024-01-15T14:40:26;9.80;;;7.47;;